Time;durP1;ratioP1;P1;durP2;ratioP2;P2;SDS_P1;SDS_P2;PMS_P1;PMS_P2;Temp;Humidity;BMP_temperature;BMP_pressure;BME280_temperature;BME280_humidity;BME280_pressure;Samples;Min_cycle;Max_cycle;Signal;HPM_P1;HPM_P2
2023/06/09 00:01:48;;;;;;;14.82;11.07;;;;;;;13.08;100.00;98491.44;4158292;28;20057;-71
2023/06/09 00:03:50;;;;;;;12.77;10.73;;;;;;;13.01;100.00;98491.41;4158024;28;20091;-71
2023/06/09 00:05:51;;;;;;;12.82;11.25;;;;;;;13.02;100.00;98487.44;4158054;28;20045;-71
2023/06/09 00:07:53;;;;;;;12.77;11.27;;;;;;;12.99;100.00;98491.81;4158004;28;20111;-71
2023/06/09 00:09:53;;;;;;;13.10;11.40;;;;;;;12.97;100.00;98491.38;4158580;28;20050;-71
2023/06/09 00:11:54;;;;;;;13.48;11.35;;;;;;;12.89;100.00;98496.13;4158038;28;20041;-72
2023/06/09 00:13:54;;;;;;;13.57;11.32;;;;;;;12.82;100.00;98495.31;4157194;28;20132;-71
2023/06/09 00:15:55;;;;;;;12.63;11.25;;;;;;;12.85;100.00;98487.00;4157931;28;20056;-71
2023/06/09 00:17:55;;;;;;;12.95;9.98;;;;;;;12.91;100.00;98491.00;4149759;28;20119;-71
2023/06/09 00:20:03;;;;;;;12.77;10.40;;;;;;;13.03;100.00;98492.59;4157973;28;20077;-71
2023/06/09 00:22:05;;;;;;;13.52;11.00;;;;;;;13.06;100.00;98494.59;4157690;28;20458;-71
2023/06/09 00:24:05;;;;;;;12.07;10.33;;;;;;;13.08;100.00;98495.00;4157371;28;20026;-71
2023/06/09 00:26:06;;;;;;;13.10;10.93;;;;;;;13.04;100.00;98494.19;4158242;28;20291;-71
2023/06/09 00:28:09;;;;;;;13.00;11.60;;;;;;;12.96;100.00;98486.22;4157810;28;20045;-71
2023/06/09 00:30:10;;;;;;;14.75;11.27;;;;;;;12.87;100.00;98492.97;4158030;28;20351;-71
2023/06/09 00:32:11;;;;;;;13.55;11.45;;;;;;;12.74;100.00;98483.41;4157600;28;20041;-71
2023/06/09 00:34:11;;;;;;;14.45;12.23;;;;;;;12.66;100.00;98484.59;4157116;28;20065;-71
2023/06/09 00:36:12;;;;;;;14.35;12.68;;;;;;;12.60;100.00;98484.16;4157563;28;20041;-71
2023/06/09 00:38:13;;;;;;;12.35;11.05;;;;;;;12.59;100.00;98488.13;4157479;28;20099;-71
2023/06/09 00:40:15;;;;;;;14.15;12.45;;;;;;;12.59;100.00;98492.88;4157542;28;20032;-71
2023/06/09 00:42:15;;;;;;;13.63;11.70;;;;;;;12.55;100.00;98490.09;4158189;28;20033;-71
2023/06/09 00:44:15;;;;;;;13.05;11.40;;;;;;;12.54;100.00;98485.72;4156670;28;20458;-71
2023/06/09 00:46:16;;;;;;;14.02;11.73;;;;;;;12.57;100.00;98484.13;4157920;28;20470;-71
2023/06/09 00:48:17;;;;;;;12.45;11.13;;;;;;;12.60;100.00;98478.59;4157188;28;20064;-71
2023/06/09 00:50:19;;;;;;;14.63;13.02;;;;;;;12.54;100.00;98474.63;4157278;28;20053;-71
2023/06/09 00:52:20;;;;;;;;;;;;;;;12.47;100.00;98477.38;4158054;28;20478;-71
2023/06/09 00:54:20;;;;;;;12.18;10.88;;;;;;;12.42;100.00;98476.97;4157204;28;19978;-71
2023/06/09 00:56:23;;;;;;;16.23;13.18;;;;;;;12.35;100.00;98477.72;4157943;28;21158;-71
2023/06/09 00:58:24;;;;;;;16.00;11.85;;;;;;;12.28;100.00;98474.91;4157014;28;20108;-71
2023/06/09 01:00:27;;;;;;;13.70;11.13;;;;;;;12.29;100.00;98473.72;4157805;28;20094;-71
2023/06/09 01:02:27;;;;;;;15.10;11.73;;;;;;;12.30;100.00;98478.09;4157081;28;20474;-71
2023/06/09 01:04:28;;;;;;;13.13;11.75;;;;;;;12.26;100.00;98475.31;4157468;28;20050;-71
2023/06/09 01:06:57;;;;;;;14.00;11.00;;;;;;;12.23;100.00;98476.06;4157424;28;20052;-71
2023/06/09 01:09:02;;;;;;;12.43;11.05;;;;;;;12.30;100.00;98467.00;4157676;28;20045;-71
2023/06/09 01:11:21;;;;;;;16.20;11.52;;;;;;;12.32;100.00;98476.50;4157658;28;20042;-71
2023/06/09 01:13:37;;;;;;;15.10;11.82;;;;;;;12.24;100.00;98474.88;4156247;28;20093;-71
2023/06/09 01:15:44;;;;;;;13.90;12.40;;;;;;;12.14;100.00;98472.84;4157156;28;20056;-71
2023/06/09 01:17:54;;;;;;;14.57;13.00;;;;;;;12.05;100.00;98464.09;4158011;28;20037;-71
2023/06/09 01:19:58;;;;;;;16.33;12.38;;;;;;;11.97;100.00;98463.25;4157054;28;20429;-71
2023/06/09 01:22:03;;;;;;;13.65;11.88;;;;;;;11.92;100.00;98460.88;4157048;28;20143;-71
2023/06/09 01:24:30;;;;;;;13.05;11.32;;;;;;;11.85;100.00;98454.50;4156385;28;20084;-71
2023/06/09 01:26:32;;;;;;;12.18;11.02;;;;;;;11.86;100.00;98467.16;4158315;28;20048;-71
2023/06/09 01:28:34;;;;;;;15.40;13.80;;;;;;;11.79;100.00;98460.34;4160425;28;20050;-71
2023/06/09 01:30:36;;;;;;;15.32;12.60;;;;;;;11.78;100.00;98458.78;4160896;28;20034;-71
2023/06/09 01:32:39;;;;;;;13.32;11.80;;;;;;;11.73;100.00;98450.81;4159753;28;20041;-71
2023/06/09 01:34:41;;;;;;;13.55;11.65;;;;;;;11.72;100.00;98452.00;4160638;28;20042;-71
2023/06/09 01:36:44;;;;;;;14.30;12.07;;;;;;;11.70;100.00;98454.34;4162133;28;20048;-71
2023/06/09 01:38:44;;;;;;;15.30;12.50;;;;;;;11.70;100.00;98459.91;4159752;28;20140;-71
2023/06/09 01:40:45;;;;;;;18.27;13.50;;;;;;;11.69;100.00;98457.53;4160173;28;20085;-71
2023/06/09 01:42:45;;;;;;;16.42;13.23;;;;;;;11.63;100.00;98465.38;4159575;28;20040;-71
2023/06/09 01:44:46;;;;;;;15.70;13.23;;;;;;;11.57;100.00;98461.38;4160230;28;20033;-71
2023/06/09 01:46:46;;;;;;;14.80;12.70;;;;;;;11.54;100.00;98464.94;4160455;28;20053;-71
2023/06/09 01:48:49;;;;;;;15.45;11.65;;;;;;;11.57;100.00;98461.38;4159984;28;20041;-71
2023/06/09 01:51:01;;;;;;;19.00;12.50;;;;;;;11.59;100.00;98461.03;4160207;28;20103;-71
2023/06/09 01:53:07;;;;;;;15.18;13.57;;;;;;;11.51;100.00;98463.75;4159372;28;20036;-71
2023/06/09 01:55:30;;;;;;;13.70;11.85;;;;;;;11.48;100.00;98461.72;4159473;28;20550;-71
2023/06/09 01:57:41;;;;;;;14.45;12.07;;;;;;;11.45;100.00;98456.94;4159827;28;20104;-71
2023/06/09 01:59:57;;;;;;;15.20;11.23;;;;;;;11.44;100.00;98452.59;4160278;28;20037;-71
2023/06/09 02:01:58;;;;;;;12.90;11.57;;;;;;;11.45;100.00;98456.94;4160409;28;20100;-71
2023/06/09 02:04:00;;;;;;;15.18;11.35;;;;;;;11.47;100.00;98451.81;4159489;28;20060;-71
2023/06/09 02:06:02;;;;;;;14.18;11.65;;;;;;;11.48;100.00;98450.63;4159684;28;20034;-71
2023/06/09 02:08:03;;;;;;;16.60;12.23;;;;;;;11.47;100.00;98440.72;4159963;28;20037;-71
2023/06/09 02:10:05;;;;;;;14.27;12.77;;;;;;;11.44;100.00;98440.72;4159245;28;20025;-71
2023/06/09 02:12:06;;;;;;;15.27;12.57;;;;;;;11.42;100.00;98446.66;4159822;28;20028;-71
2023/06/09 02:14:06;;;;;;;15.55;11.55;;;;;;;11.43;100.00;98447.44;4158901;28;20022;-71
2023/06/09 02:16:07;;;;;;;14.18;11.90;;;;;;;11.46;100.00;98443.91;4160459;28;20576;-71
2023/06/09 02:18:10;;;;;;;13.07;11.70;;;;;;;11.44;100.00;98441.50;4158409;28;20029;-71
2023/06/09 02:20:10;;;;;;;15.25;12.32;;;;;;;11.49;100.00;98451.44;4157049;28;20049;-71
2023/06/09 02:22:11;;;;;;;12.18;10.88;;;;;;;11.56;100.00;98443.16;4158749;28;20029;-71
2023/06/09 02:24:11;;;;;;;12.90;11.50;;;;;;;11.63;100.00;98442.44;4158110;28;20033;-71
2023/06/09 02:26:12;;;;;;;13.98;12.50;;;;;;;11.65;100.00;98443.63;4159608;28;20112;-71
2023/06/09 02:28:13;;;;;;;12.57;11.10;;;;;;;11.70;100.00;98453.56;4159037;28;20035;-71
2023/06/09 02:30:14;;;;;;;13.93;11.82;;;;;;;11.78;100.00;98450.44;4158794;28;20462;-71
2023/06/09 02:32:14;;;;;;;18.75;12.70;;;;;;;11.77;100.00;98448.06;4159463;28;20045;-71
2023/06/09 02:34:15;;;;;;;13.32;11.93;;;;;;;11.78;100.00;98452.44;4158940;28;20037;-71
2023/06/09 02:36:16;;;;;;;15.98;13.27;;;;;;;11.79;100.00;98451.25;4159014;28;20033;-70
2023/06/09 02:38:17;;;;;;;20.98;14.90;;;;;;;11.73;100.00;98452.78;4157453;28;20401;-71
2023/06/09 02:40:17;;;;;;;22.83;15.77;;;;;;;11.65;100.00;98446.41;4157177;28;20201;-71
2023/06/09 02:42:18;;;;;;;19.77;14.57;;;;;;;11.52;100.00;98453.44;4159096;28;20048;-71
2023/06/09 02:44:18;;;;;;;18.70;15.48;;;;;;;11.39;100.00;98444.63;4158629;28;20036;-71
2023/06/09 02:46:22;;;;;;;16.80;13.45;;;;;;;11.37;100.00;98451.75;4159206;28;20030;-71
2023/06/09 02:48:22;;;;;;;16.38;13.27;;;;;;;11.36;100.00;98455.69;4158476;28;20370;-70
2023/06/09 02:50:23;;;;;;;16.33;13.38;;;;;;;11.30;100.00;98460.78;4156387;28;20111;-71
2023/06/09 02:52:23;;;;;;;17.55;13.40;;;;;;;11.26;100.00;98462.75;4158772;28;20041;-71
2023/06/09 02:54:23;;;;;;;13.57;11.90;;;;;;;11.21;100.00;98452.81;4158817;28;20053;-71
2023/06/09 02:56:24;;;;;;;14.73;12.93;;;;;;;11.19;100.00;98452.41;4159103;28;20110;-71
2023/06/09 02:58:24;;;;;;;15.27;13.32;;;;;;;11.18;100.00;98458.31;4158937;28;20370;-71
2023/06/09 03:00:25;;;;;;;17.00;12.50;;;;;;;11.21;100.00;98460.31;4158758;28;20220;-71
2023/06/09 03:02:30;;;;;;;15.13;12.18;;;;;;;11.23;100.00;98458.75;4158549;28;20072;-71
2023/06/09 03:04:31;;;;;;;15.80;12.27;;;;;;;11.27;100.00;98461.56;4158856;28;20037;-71
2023/06/09 03:06:33;;;;;;;18.40;13.27;;;;;;;11.22;100.00;98459.13;4157599;28;20116;-71
2023/06/09 03:08:33;;;;;;;15.82;12.82;;;;;;;11.20;100.00;98451.22;4155480;28;20076;-71
2023/06/09 03:10:33;;;;;;;21.52;14.45;;;;;;;11.17;100.00;98456.72;4158655;28;20069;-71
2023/06/09 03:12:34;;;;;;;15.85;12.57;;;;;;;11.16;100.00;98458.69;4157863;28;20136;-71
2023/06/09 03:14:35;;;;;;;14.60;13.02;;;;;;;11.21;100.00;98460.31;4158544;28;20231;-71
2023/06/09 03:16:35;;;;;;;14.07;12.23;;;;;;;11.19;100.00;98463.47;4158851;28;20949;-71
2023/06/09 03:18:35;;;;;;;18.40;12.77;;;;;;;11.23;100.00;98466.25;4158628;28;20044;-71
2023/06/09 03:20:36;;;;;;;15.57;11.95;;;;;;;11.30;100.00;98466.31;4158535;28;20049;-71
2023/06/09 03:22:36;;;;;;;17.73;12.38;;;;;;;11.44;100.00;98479.50;4158009;28;20057;-71
2023/06/09 03:24:37;;;;;;;19.00;13.23;;;;;;;11.51;100.00;98485.09;4158446;28;20049;-71
2023/06/09 03:26:37;;;;;;;16.15;13.07;;;;;;;11.54;100.00;98479.59;4158541;28;20365;-71
2023/06/09 03:28:38;;;;;;;19.38;12.98;;;;;;;11.54;100.00;98487.09;4158502;28;20044;-71
2023/06/09 03:30:38;;;;;;;16.90;13.02;;;;;;;11.47;100.00;98482.28;4158950;28;20033;-71
2023/06/09 03:32:38;;;;;;;18.33;13.15;;;;;;;11.39;100.00;98485.38;4157605;28;20040;-71
2023/06/09 03:34:41;;;;;;;19.85;13.82;;;;;;;11.32;100.00;98479.78;4158938;28;20132;-71
2023/06/09 03:36:41;;;;;;;17.15;12.93;;;;;;;11.33;100.00;98479.41;4159027;28;20103;-71
2023/06/09 03:38:41;;;;;;;18.42;13.15;;;;;;;11.33;100.00;98489.69;4157991;28;20481;-71
2023/06/09 03:40:42;;;;;;;17.58;14.45;;;;;;;11.23;100.00;98482.88;4158665;28;20049;-71
2023/06/09 03:42:42;;;;;;;19.83;14.15;;;;;;;11.15;100.00;98482.00;4157681;28;20040;-71
2023/06/09 03:44:42;;;;;;;20.35;14.40;;;;;;;11.11;100.00;98480.41;4158594;28;20049;-71
2023/06/09 03:46:43;;;;;;;17.80;13.07;;;;;;;11.07;100.00;98493.41;4158727;28;20138;-71
2023/06/09 03:48:43;;;;;;;17.08;12.82;;;;;;;11.09;100.00;98486.34;4158303;28;20037;-71
2023/06/09 03:50:43;;;;;;;19.27;12.93;;;;;;;11.10;100.00;98479.63;4157906;28;20133;-71
2023/06/09 03:52:44;;;;;;;18.25;12.95;;;;;;;11.13;100.00;98483.59;4157537;28;20076;-71
2023/06/09 03:54:45;;;;;;;19.55;13.10;;;;;;;11.14;100.00;98477.66;4157969;28;20049;-71
2023/06/09 03:56:45;;;;;;;17.23;12.90;;;;;;;11.16;100.00;98480.84;4158743;28;20053;-71
2023/06/09 03:58:46;;;;;;;19.42;13.52;;;;;;;11.14;100.00;98479.63;4158350;28;20113;-71
2023/06/09 04:00:47;;;;;;;17.98;13.32;;;;;;;11.14;100.00;98483.19;4158046;28;20612;-71
2023/06/09 04:02:47;;;;;;;16.73;12.40;;;;;;;11.20;100.00;98491.97;4156675;28;20132;-71
2023/06/09 04:04:48;;;;;;;23.08;13.07;;;;;;;11.25;100.00;98489.66;4159459;28;20183;-71
2023/06/09 04:06:48;;;;;;;18.00;13.20;;;;;;;11.30;100.00;98485.72;4157712;28;20126;-71
2023/06/09 04:08:49;;;;;;;17.70;13.48;;;;;;;11.32;100.00;98486.13;4158170;28;20045;-71
2023/06/09 04:10:49;;;;;;;16.42;12.30;;;;;;;11.32;100.00;98488.09;4158384;28;20498;-71
2023/06/09 04:12:50;;;;;;;21.13;13.02;;;;;;;11.35;100.00;98487.34;4157096;28;20365;-71
2023/06/09 04:14:50;;;;;;;18.95;12.70;;;;;;;11.40;100.00;98492.53;4157670;28;20037;-71
2023/06/09 04:16:50;;;;;;;19.73;13.60;;;;;;;11.45;100.00;98490.19;4158446;28;20048;-71
2023/06/09 04:18:51;;;;;;;15.45;13.05;;;;;;;11.53;100.00;98485.50;4157850;28;20482;-71
2023/06/09 04:20:51;;;;;;;16.92;13.43;;;;;;;11.55;100.00;98491.47;4157519;28;20045;-71
2023/06/09 04:22:52;;;;;;;17.50;13.30;;;;;;;11.59;100.00;98495.06;4157467;28;20076;-71
2023/06/09 04:24:53;;;;;;;16.27;13.35;;;;;;;11.59;100.00;98485.97;4157821;28;20112;-71
2023/06/09 04:26:53;;;;;;;17.85;13.27;;;;;;;11.62;100.00;98494.28;4158069;28;20416;-70
2023/06/09 04:28:54;;;;;;;16.08;12.52;;;;;;;11.68;100.00;98491.97;4158076;28;20042;-71
2023/06/09 04:30:57;;;;;;;15.23;13.35;;;;;;;11.69;100.00;98491.56;4157851;28;20115;-71
2023/06/09 04:33:03;;;;;;;18.50;13.55;;;;;;;11.70;100.00;98495.94;4157178;28;20433;-71
2023/06/09 04:35:04;;;;;;;18.70;14.15;;;;;;;11.72;100.00;98492.78;4157392;28;20049;-71
2023/06/09 04:37:07;;;;;;;15.15;12.77;;;;;;;11.71;100.00;98496.72;4157639;28;20159;-71
2023/06/09 04:39:10;;;;;;;18.38;13.30;;;;;;;11.75;100.00;98498.34;4157222;28;20037;-71
2023/06/09 04:41:11;;;;;;;;;;;;;;;11.77;100.00;98490.44;4158274;28;20053;-71
2023/06/09 04:43:12;;;;;;;17.35;13.02;;;;;;;11.78;100.00;98489.25;4157601;28;19915;-71
2023/06/09 04:45:13;;;;;;;18.17;12.48;;;;;;;11.79;100.00;98493.63;4156714;28;20160;-71
2023/06/09 04:47:17;;;;;;;17.52;14.18;;;;;;;11.82;100.00;98481.78;4157550;28;20509;-71
2023/06/09 04:49:17;;;;;;;15.80;12.60;;;;;;;11.81;100.00;98484.94;4157662;28;20573;-71
2023/06/09 04:51:19;;;;;;;18.50;12.90;;;;;;;11.85;100.00;98482.22;4157418;28;20049;-71
2023/06/09 04:53:19;;;;;;;16.45;13.52;;;;;;;11.90;100.00;98479.06;4156686;28;20072;-71
2023/06/09 04:55:20;;;;;;;19.67;14.55;;;;;;;11.93;100.00;98478.31;4157637;28;20493;-71
2023/06/09 04:57:20;;;;;;;16.30;13.68;;;;;;;11.99;100.00;98480.28;4157794;28;20049;-71
2023/06/09 04:59:20;;;;;;;18.77;14.80;;;;;;;12.07;100.00;98481.94;4113655;28;20037;-71
2023/06/09 05:01:21;;;;;;;17.58;15.02;;;;;;;12.26;100.00;98483.63;4128303;28;20041;-71
2023/06/09 05:03:23;;;;;;;16.10;13.73;;;;;;;12.43;100.00;98473.00;4144213;28;20061;-71
2023/06/09 05:05:24;;;;;;;21.65;14.32;;;;;;;12.64;100.00;98484.97;4144364;28;20049;-71
2023/06/09 05:07:24;;;;;;;21.60;15.52;;;;;;;12.77;100.00;98482.63;4144104;28;20053;-71
2023/06/09 05:09:25;;;;;;;19.65;15.18;;;;;;;12.89;100.00;98482.25;4143604;28;20136;-71
2023/06/09 05:11:25;;;;;;;16.38;14.57;;;;;;;13.03;100.00;98494.59;4143397;28;20096;-71
2023/06/09 05:13:25;;;;;;;17.45;13.95;;;;;;;13.11;100.00;98488.66;4143770;28;20096;-71
2023/06/09 05:15:27;;;;;;;15.50;13.77;;;;;;;13.19;100.00;98489.44;4144437;28;20084;-71
2023/06/09 05:17:27;;;;;;;19.25;13.80;;;;;;;13.30;100.00;98489.50;4144836;28;20056;-71
2023/06/09 05:19:27;;;;;;;22.80;15.75;;;;;;;13.41;100.00;98496.66;4143704;28;20474;-71
2023/06/09 05:21:28;;;;;;;23.95;14.98;;;;;;;13.49;100.00;98484.34;4143993;28;20490;-71
2023/06/09 05:23:28;;;;;;;17.50;14.82;;;;;;;13.59;100.00;98493.09;4143392;28;20050;-71
2023/06/09 05:25:29;;;;;;;19.60;14.88;;;;;;;13.68;100.00;98490.69;4144567;28;20042;-71
2023/06/09 05:27:29;;;;;;;21.00;14.38;;;;;;;13.74;100.00;98495.47;4143969;28;20081;-71
2023/06/09 05:29:30;;;;;;;17.48;13.77;;;;;;;13.86;100.00;98494.25;4143894;28;20046;-71
2023/06/09 05:31:31;;;;;;;17.98;14.32;;;;;;;13.96;100.00;98484.28;4146340;28;20077;-71
2023/06/09 05:33:32;;;;;;;15.40;13.88;;;;;;;14.05;100.00;98481.88;4143210;28;20045;-71
2023/06/09 05:35:32;;;;;;;15.20;13.60;;;;;;;14.11;100.00;98488.63;4142986;28;20042;-71
2023/06/09 05:37:32;;;;;;;16.77;15.05;;;;;;;14.21;100.00;98492.56;4143486;28;20042;-71
2023/06/09 05:39:33;;;;;;;15.57;13.57;;;;;;;14.32;100.00;98490.56;4144367;28;20121;-71
2023/06/09 05:41:34;;;;;;;16.23;14.38;;;;;;;14.41;100.00;98482.59;4138250;28;20413;-71
2023/06/09 05:43:34;;;;;;;16.40;14.52;;;;;;;14.47;100.00;98492.09;4140887;28;20077;-71
2023/06/09 05:45:34;;;;;;;18.90;15.38;;;;;;;14.53;100.00;98484.16;4142875;28;20096;-71
2023/06/09 05:47:35;;;;;;;22.92;15.40;;;;;;;14.63;100.00;98485.28;4143091;28;20065;-71
2023/06/09 05:49:35;;;;;;;17.88;15.50;;;;;;;14.69;100.00;98483.69;4143887;28;20095;-71
2023/06/09 05:51:36;;;;;;;17.25;14.73;;;;;;;14.77;100.00;98480.44;4143794;28;20145;-71
2023/06/09 05:53:37;;;;;;;19.50;15.70;;;;;;;14.87;100.00;98476.00;4142789;28;20463;-71
2023/06/09 05:55:38;;;;;;;16.42;14.75;;;;;;;14.96;100.00;98478.34;4143592;28;20192;-71
2023/06/09 05:57:40;;;;;;;19.00;16.00;;;;;;;15.04;100.00;98482.69;4143313;28;20038;-71
2023/06/09 05:59:40;;;;;;;16.77;15.02;;;;;;;15.12;100.00;98482.22;4142842;28;20056;-71
2023/06/09 06:01:41;;;;;;;18.58;15.60;;;;;;;15.20;100.00;98465.47;4142123;28;20030;-71
2023/06/09 06:03:42;;;;;;;16.90;15.10;;;;;;;15.28;100.00;98473.34;4141396;28;20034;-71
2023/06/09 06:05:44;;;;;;;20.23;16.23;;;;;;;15.32;100.00;98471.34;4143276;28;20552;-71
2023/06/09 06:07:45;;;;;;;17.92;15.25;;;;;;;15.38;100.00;98486.41;4143635;28;20061;-71
2023/06/09 06:09:45;;;;;;;15.75;14.05;;;;;;;15.44;100.00;98475.63;4143416;28;20497;-71
2023/06/09 06:11:45;;;;;;;17.05;15.25;;;;;;;15.52;100.00;98485.50;4143178;28;20056;-71
2023/06/09 06:13:46;;;;;;;15.52;13.93;;;;;;;15.57;100.00;98490.66;4141664;28;20164;-71
2023/06/09 06:15:46;;;;;;;15.90;14.27;;;;;;;15.65;100.00;98483.84;4143007;28;20125;-71
2023/06/09 06:17:46;;;;;;;20.45;15.48;;;;;;;15.73;100.00;98490.16;4142619;28;20096;-71
2023/06/09 06:19:47;;;;;;;17.52;15.10;;;;;;;15.75;100.00;98479.38;4143221;28;20033;-71
2023/06/09 06:21:47;;;;;;;16.60;14.88;;;;;;;15.86;100.00;98493.22;4142778;28;20040;-71
2023/06/09 06:23:47;;;;;;;16.60;14.90;;;;;;;15.93;100.00;98485.56;4142017;28;20042;-71
2023/06/09 06:25:47;;;;;;;16.98;15.27;;;;;;;15.99;100.00;98491.50;4142655;28;20194;-71
2023/06/09 06:27:48;;;;;;;15.65;14.05;;;;;;;16.05;100.00;98491.84;4142440;28;20212;-71
2023/06/09 06:29:48;;;;;;;17.02;15.23;;;;;;;16.12;100.00;98497.34;4142539;28;20382;-71
2023/06/09 06:31:48;;;;;;;17.08;15.18;;;;;;;16.17;100.00;98492.13;4142572;28;20511;-71
2023/06/09 06:33:49;;;;;;;17.20;15.40;;;;;;;16.27;100.00;98485.63;4142343;28;20052;-71
2023/06/09 06:35:50;;;;;;;20.20;16.02;;;;;;;16.33;100.00;98485.97;4143011;28;20077;-71
2023/06/09 06:37:50;;;;;;;17.70;15.80;;;;;;;16.42;100.00;98489.03;4142838;28;20083;-71
2023/06/09 06:39:51;;;;;;;19.55;17.08;;;;;;;16.51;100.00;98482.94;4143618;28;20845;-72
2023/06/09 06:41:51;;;;;;;20.63;16.15;;;;;;;16.62;100.00;98489.19;4142946;28;20054;-71
2023/06/09 06:43:52;;;;;;;19.88;16.55;;;;;;;16.71;100.00;98485.91;4141526;28;20045;-71
2023/06/09 06:45:52;;;;;;;18.02;15.60;;;;;;;16.76;100.00;98489.03;4141422;28;20139;-71
2023/06/09 06:47:53;;;;;;;17.05;15.15;;;;;;;16.90;100.00;98485.28;4144129;28;20420;-71
2023/06/09 06:49:53;;;;;;;16.77;14.55;;;;;;;17.03;100.00;98485.47;4142561;28;20092;-71
2023/06/09 06:51:54;;;;;;;16.50;14.43;;;;;;;17.11;100.00;98484.16;4141167;28;20042;-71
2023/06/09 06:53:54;;;;;;;18.30;14.45;;;;;;;17.16;100.00;98480.13;4139049;28;20470;-71
2023/06/09 06:55:55;;;;;;;16.15;14.45;;;;;;;17.25;100.00;98483.97;4142365;28;20056;-72
2023/06/09 06:57:55;;;;;;;17.63;14.75;;;;;;;17.30;100.00;98485.50;4142619;28;20044;-71
2023/06/09 06:59:56;;;;;;;16.52;13.60;;;;;;;17.40;100.00;98488.13;4142660;28;20056;-71
2023/06/09 07:01:56;;;;;;;18.48;14.30;;;;;;;17.42;100.00;98484.91;4142096;28;20340;-71
2023/06/09 07:03:57;;;;;;;16.35;14.75;;;;;;;17.47;100.00;98489.22;4141760;28;20064;-72
2023/06/09 07:05:57;;;;;;;15.85;14.23;;;;;;;17.58;100.00;98495.44;4142398;28;20092;-72
2023/06/09 07:07:58;;;;;;;15.98;14.38;;;;;;;17.60;100.00;98498.59;4142012;28;20029;-72
2023/06/09 07:09:58;;;;;;;16.15;14.45;;;;;;;17.64;100.00;98491.75;4140538;28;20136;-71
2023/06/09 07:11:59;;;;;;;16.13;14.50;;;;;;;17.78;100.00;98501.91;4141879;28;20112;-71
2023/06/09 07:13:59;;;;;;;14.00;12.60;;;;;;;17.83;100.00;98501.44;4141788;28;20436;-71
2023/06/09 07:16:00;;;;;;;15.35;13.77;;;;;;;17.81;100.00;98498.28;4141835;28;20042;-72
2023/06/09 07:18:00;;;;;;;13.90;12.50;;;;;;;17.85;100.00;98498.19;4135717;28;20052;-71
2023/06/09 07:20:00;;;;;;;15.23;13.63;;;;;;;17.89;100.00;98496.16;4140084;28;20426;-72
2023/06/09 07:22:01;;;;;;;16.55;14.85;;;;;;;17.92;100.00;98492.47;4141687;28;20034;-72
2023/06/09 07:24:03;;;;;;;16.40;14.48;;;;;;;17.96;100.00;98499.63;4141317;28;20083;-72
2023/06/09 07:26:04;;;;;;;15.85;14.10;;;;;;;18.08;100.00;98489.00;4138466;28;20030;-72
2023/06/09 07:28:04;;;;;;;16.23;14.70;;;;;;;18.10;100.00;98500.56;4141186;28;20097;-72
2023/06/09 07:30:05;;;;;;;16.50;14.88;;;;;;;18.15;100.00;98502.88;4141405;28;20030;-72
2023/06/09 07:32:06;;;;;;;19.83;15.25;;;;;;;18.20;100.00;98502.38;4141927;28;20053;-72
2023/06/09 07:34:06;;;;;;;15.75;13.95;;;;;;;18.28;100.00;98503.03;4141797;28;20064;-72
2023/06/09 07:36:10;;;;;;;16.30;14.60;;;;;;;18.35;100.00;98505.69;4141056;28;20096;-72
2023/06/09 07:38:11;;;;;;;21.13;14.63;;;;;;;18.34;100.00;98502.09;4141091;28;20026;-72
2023/06/09 07:40:12;;;;;;;15.73;14.13;;;;;;;18.34;100.00;98499.28;4141930;28;20487;-72
2023/06/09 07:42:12;;;;;;;15.77;14.07;;;;;;;18.45;100.00;98501.88;4142372;28;20086;-72
2023/06/09 07:44:12;;;;;;;16.08;14.38;;;;;;;18.51;100.00;98500.97;4140578;28;20026;-72
2023/06/09 07:46:14;;;;;;;16.40;14.60;;;;;;;18.63;100.00;98495.94;4141650;28;20049;-72
2023/06/09 07:48:14;;;;;;;16.20;14.38;;;;;;;18.71;100.00;98494.59;4142072;28;20030;-72
2023/06/09 07:50:15;;;;;;;15.20;13.38;;;;;;;18.77;100.00;98502.06;4139194;28;20062;-72
2023/06/09 07:52:15;;;;;;;15.27;12.98;;;;;;;18.82;100.00;98506.38;4140171;28;20045;-72
2023/06/09 07:54:16;;;;;;;14.52;12.80;;;;;;;18.84;100.00;98500.31;4132439;28;20477;-72
2023/06/09 07:56:16;;;;;;;14.38;12.77;;;;;;;18.91;100.00;98498.16;4134074;28;20038;-72
2023/06/09 07:58:17;;;;;;;14.13;12.50;;;;;;;19.00;100.00;98503.19;4131315;28;20026;-72
2023/06/09 08:00:18;;;;;;;15.48;13.77;;;;;;;19.02;100.00;98500.72;4131316;28;20083;-72
2023/06/09 08:02:18;;;;;;;14.50;13.10;;;;;;;19.11;100.00;98497.31;4136230;28;20441;-72
2023/06/09 08:04:19;;;;;;;14.98;13.40;;;;;;;19.17;100.00;98502.00;4141081;28;20018;-72
2023/06/09 08:06:19;;;;;;;15.93;13.73;;;;;;;19.25;100.00;98497.78;4141666;28;20018;-72
2023/06/09 08:08:20;;;;;;;14.98;13.32;;;;;;;19.34;100.00;98488.78;4140489;28;20036;-72
2023/06/09 08:10:20;;;;;;;16.38;13.65;;;;;;;19.45;100.00;98500.56;4141557;28;20064;-72
2023/06/09 08:12:20;;;;;;;14.93;12.73;;;;;;;19.45;100.00;98497.75;4141252;28;20046;-72
2023/06/09 08:14:22;;;;;;;15.65;14.10;;;;;;;19.53;100.00;98490.75;4140194;28;20057;-72
2023/06/09 08:16:22;;;;;;;16.50;14.00;;;;;;;19.60;100.00;98498.19;4142016;28;20037;-72
2023/06/09 08:18:22;;;;;;;14.90;12.85;;;;;;;19.71;99.19;98506.38;4141803;28;20034;-72
2023/06/09 08:20:23;;;;;;;15.15;13.27;;;;;;;19.66;98.76;98499.25;4143172;28;20896;-72
2023/06/09 08:22:23;;;;;;;20.38;13.23;;;;;;;19.64;98.08;98508.13;4140676;28;20290;-72
2023/06/09 08:24:23;;;;;;;17.70;14.70;;;;;;;19.61;98.01;98496.97;4136909;28;20151;-72
2023/06/09 08:26:24;;;;;;;16.48;14.50;;;;;;;19.76;98.14;98503.81;4141373;28;20108;-72
2023/06/09 08:28:24;;;;;;;15.23;13.25;;;;;;;19.87;97.16;98503.56;4139996;28;20103;-72
2023/06/09 08:30:24;;;;;;;14.50;12.27;;;;;;;19.96;97.36;98494.53;4139812;28;20479;-72
2023/06/09 08:32:25;;;;;;;15.15;13.52;;;;;;;20.12;98.46;98497.31;4141778;28;20069;-72
2023/06/09 08:34:25;;;;;;;18.45;14.38;;;;;;;20.16;95.75;98490.34;4145829;28;20036;-72
2023/06/09 08:36:26;;;;;;;15.90;12.88;;;;;;;20.27;96.62;98489.25;4157003;28;20052;-72
2023/06/09 08:38:26;;;;;;;14.45;13.05;;;;;;;20.38;94.32;98503.81;4157471;28;20422;-72
2023/06/09 08:40:26;;;;;;;15.68;13.70;;;;;;;20.36;94.17;98497.88;4157355;28;20034;-72
2023/06/09 08:42:30;;;;;;;16.67;14.50;;;;;;;20.45;93.09;98495.22;4156934;28;20076;-72
2023/06/09 08:44:36;;;;;;;16.13;14.52;;;;;;;20.44;92.15;98496.47;4156212;28;20530;-72
2023/06/09 08:46:40;;;;;;;15.15;13.65;;;;;;;20.45;90.59;98496.00;4157140;28;20571;-72
2023/06/09 08:48:49;;;;;;;18.35;15.02;;;;;;;20.37;90.62;98491.78;4157173;28;20037;-72
2023/06/09 08:50:50;;;;;;;16.80;15.02;;;;;;;20.27;91.26;98486.44;4157079;28;20041;-72
2023/06/09 08:52:53;;;;;;;16.00;14.30;;;;;;;20.45;91.74;98484.78;4156435;28;20789;-72
2023/06/09 08:54:56;;;;;;;20.15;15.48;;;;;;;20.57;92.58;98485.25;4157282;28;20046;-72
2023/06/09 08:56:57;;;;;;;;;;;;;;;20.75;91.28;98482.69;4157778;28;20069;-72
2023/06/09 08:58:58;;;;;;;13.23;11.98;;;;;;;20.73;88.26;98485.19;4157590;28;19913;-72
2023/06/09 09:00:58;;;;;;;14.63;11.95;;;;;;;20.84;88.20;98485.63;4157374;28;20049;-72
2023/06/09 09:02:58;;;;;;;14.13;12.70;;;;;;;20.78;84.89;98476.22;4157202;28;20041;-72
2023/06/09 09:05:00;;;;;;;17.35;10.90;;;;;;;20.83;85.85;98477.66;4157785;28;20034;-72
2023/06/09 09:07:02;;;;;;;12.82;11.25;;;;;;;20.80;85.81;98470.91;4157553;28;20486;-72
2023/06/09 09:09:02;;;;;;;13.82;12.35;;;;;;;20.94;86.34;98478.16;4153902;28;20112;-72
2023/06/09 09:11:03;;;;;;;13.55;12.25;;;;;;;21.03;86.55;98479.06;4156079;28;20505;-72
2023/06/09 09:13:07;;;;;;;11.45;10.23;;;;;;;21.13;84.90;98488.41;4156467;28;20558;-72
2023/06/09 09:15:10;;;;;;;11.20;10.10;;;;;;;21.29;86.12;98479.09;4157111;28;20445;-72